createdAt,value
2023-11-15T00:01:13.946Z,100415.47
2023-11-15T00:03:41.829Z,100426.40
2023-11-15T00:06:09.737Z,100427.58
2023-11-15T00:08:37.572Z,100436.30
2023-11-15T00:11:05.640Z,100454.52
2023-11-15T00:13:34.859Z,100452.91
2023-11-15T00:16:02.515Z,100458.21
2023-11-15T00:18:31.051Z,100453.27
2023-11-15T00:20:58.556Z,100455.87
2023-11-15T00:23:28.031Z,100461.14
2023-11-15T00:25:55.685Z,100459.45
2023-11-15T00:28:23.365Z,100460.31
2023-11-15T00:30:50.927Z,100459.55
2023-11-15T00:33:18.716Z,100456.88
2023-11-15T00:35:46.404Z,100443.23
2023-11-15T00:38:16.390Z,100438.73
2023-11-15T00:40:44.192Z,100425.51
2023-11-15T00:43:12.355Z,100420.11
2023-11-15T00:45:39.975Z,100411.24
2023-11-15T00:48:07.704Z,100395.63
2023-11-15T00:50:35.366Z,100397.73
2023-11-15T00:53:05.043Z,100390.67
2023-11-15T00:55:32.689Z,100387.96
2023-11-15T00:58:00.914Z,100392.48
2023-11-15T01:00:28.711Z,100389.79
2023-11-15T01:02:57.439Z,100381.27
2023-11-15T01:05:25.870Z,100385.98
2023-11-15T01:07:53.680Z,100378.09
2023-11-15T01:10:22.164Z,100377.25
2023-11-15T01:12:49.788Z,100370.30
2023-11-15T01:15:17.594Z,100368.06
2023-11-15T01:17:46.645Z,100372.16
2023-11-15T01:20:14.634Z,100379.33
2023-11-15T01:22:42.651Z,100377.85
2023-11-15T01:25:10.724Z,100378.63
2023-11-15T01:27:38.314Z,100373.05
2023-11-15T01:30:06.672Z,100363.06
2023-11-15T01:32:34.351Z,100359.59
2023-11-15T01:35:02.094Z,100376.17
2023-11-15T01:37:29.707Z,100386.23
2023-11-15T01:39:57.468Z,100386.51
2023-11-15T01:42:25.064Z,100386.04
2023-11-15T01:44:52.768Z,100371.89
2023-11-15T01:47:20.437Z,100374.07
2023-11-15T01:49:48.066Z,100373.45
2023-11-15T01:52:15.662Z,100366.46
2023-11-15T01:54:43.364Z,100361.93
2023-11-15T01:57:11.787Z,100366.85
2023-11-15T01:59:39.400Z,100369.89
2023-11-15T02:02:07.575Z,100373.34
2023-11-15T02:04:35.098Z,100365.31
2023-11-15T02:07:02.624Z,100361.86
2023-11-15T02:09:31.365Z,100357.36
2023-11-15T02:11:58.879Z,100357.94
2023-11-15T02:14:26.776Z,100369.12
2023-11-15T02:16:55.102Z,100369.71
2023-11-15T02:19:22.756Z,100366.34
2023-11-15T02:21:50.904Z,100371.15
2023-11-15T02:24:18.579Z,100384.98
2023-11-15T02:26:49.292Z,100384.31
2023-11-15T02:29:16.872Z,100383.42
2023-11-15T02:31:44.433Z,100375.04
2023-11-15T02:34:11.928Z,100364.56
2023-11-15T02:36:39.610Z,100359.14
2023-11-15T02:39:10.160Z,100359.70
2023-11-15T02:41:37.925Z,100354.10
2023-11-15T02:44:05.963Z,100345.92
2023-11-15T02:46:33.888Z,100349.48
2023-11-15T02:49:01.604Z,100360.00
2023-11-15T02:51:29.269Z,100359.04
2023-11-15T02:53:58.205Z,100366.23
2023-11-15T02:56:25.935Z,100368.43
2023-11-15T02:58:53.605Z,100366.50
2023-11-15T03:01:21.223Z,100355.02
2023-11-15T03:03:48.908Z,100342.88
2023-11-15T03:06:16.817Z,100336.41
2023-11-15T03:08:44.451Z,100332.65
2023-11-15T03:11:12.221Z,100342.64
2023-11-15T03:13:39.813Z,100357.23
2023-11-15T03:16:08.116Z,100353.38
2023-11-15T03:18:35.738Z,100351.02
2023-11-15T03:21:07.652Z,100357.55
2023-11-15T03:23:35.149Z,100360.98
2023-11-15T03:26:02.669Z,100359.23
2023-11-15T03:28:30.945Z,100372.66
2023-11-15T03:31:04.713Z,100381.63
2023-11-15T03:33:32.423Z,100378.80
2023-11-15T03:36:00.642Z,100376.09
2023-11-15T03:38:28.168Z,100383.55
2023-11-15T03:40:55.929Z,100383.58
2023-11-15T03:43:24.123Z,100382.79
2023-11-15T03:45:51.689Z,100366.78
2023-11-15T03:48:19.514Z,100360.98
2023-11-15T03:50:47.338Z,100358.73
2023-11-15T03:53:14.897Z,100358.79
2023-11-15T03:55:45.281Z,100348.06
2023-11-15T03:58:13.863Z,100339.85
2023-11-15T04:00:41.322Z,100336.85
2023-11-15T04:03:09.206Z,100340.16
2023-11-15T04:05:36.872Z,100349.86
2023-11-15T04:08:04.883Z,100352.44
2023-11-15T04:10:32.388Z,100357.45
2023-11-15T04:13:00.579Z,100360.29
2023-11-15T04:15:28.141Z,100355.68
2023-11-15T04:17:55.736Z,100353.48
2023-11-15T04:20:23.615Z,100360.38
2023-11-15T04:22:51.317Z,100343.67
2023-11-15T04:25:19.012Z,100333.73
2023-11-15T04:27:46.588Z,100336.45
2023-11-15T04:30:17.258Z,100329.27
2023-11-15T04:32:46.743Z,100327.88
2023-11-15T04:35:14.409Z,100329.10
2023-11-15T04:37:41.965Z,100319.45
2023-11-15T04:40:11.695Z,100318.19
2023-11-15T04:42:40.234Z,100322.75
2023-11-15T04:45:08.499Z,100313.20
2023-11-15T04:47:36.782Z,100311.75
2023-11-15T04:50:05.680Z,100305.34
2023-11-15T04:52:33.250Z,100301.30
2023-11-15T04:55:00.981Z,100308.00
2023-11-15T04:57:30.648Z,100310.20
2023-11-15T04:59:58.257Z,100305.92
2023-11-15T05:02:28.765Z,100312.13
2023-11-15T05:04:56.761Z,100311.20
2023-11-15T05:07:26.564Z,100316.80
2023-11-15T05:09:54.972Z,100311.16
2023-11-15T05:14:50.175Z,100311.78
2023-11-15T05:17:17.751Z,100321.61
2023-11-15T05:19:45.705Z,100329.48
2023-11-15T05:22:13.490Z,100331.91
2023-11-15T05:24:42.159Z,100319.58
2023-11-15T05:27:11.151Z,100314.70
2023-11-15T05:29:38.945Z,100320.61
2023-11-15T05:32:06.847Z,100322.66
2023-11-15T05:34:34.843Z,100327.88
2023-11-15T05:37:02.392Z,100335.04
2023-11-15T05:39:30.465Z,100327.27
2023-11-15T05:41:58.113Z,100322.08
2023-11-15T05:44:25.879Z,100317.25
2023-11-15T05:46:54.250Z,100321.63
2023-11-15T05:49:21.870Z,100313.33
2023-11-15T05:51:49.511Z,100323.04
2023-11-15T05:54:17.622Z,100339.84
2023-11-15T05:56:48.213Z,100336.48
2023-11-15T05:59:15.773Z,100332.60
2023-11-15T06:01:43.357Z,100344.59
2023-11-15T06:04:11.925Z,100348.55
2023-11-15T06:06:39.703Z,100352.45
2023-11-15T06:09:07.403Z,100356.02
2023-11-15T06:11:35.155Z,100359.23
2023-11-15T06:14:03.085Z,100368.46
2023-11-15T06:16:30.710Z,100363.88
2023-11-15T06:18:59.527Z,100362.30
2023-11-15T06:21:28.192Z,100369.59
2023-11-15T06:23:56.790Z,100379.82
2023-11-15T06:26:24.444Z,100380.95
2023-11-15T06:28:56.003Z,100370.34
2023-11-15T06:31:27.189Z,100373.33
2023-11-15T06:33:54.990Z,100378.30
2023-11-15T06:36:22.693Z,100376.73
2023-11-15T06:38:50.954Z,100372.45
2023-11-15T06:41:21.076Z,100366.80
2023-11-15T06:43:53.296Z,100367.69
2023-11-15T06:46:21.065Z,100362.63
2023-11-15T06:48:49.122Z,100353.12
2023-11-15T06:51:17.362Z,100353.35
2023-11-15T06:53:47.329Z,100352.79
2023-11-15T06:56:15.090Z,100359.20
2023-11-15T06:58:45.543Z,100358.73
2023-11-15T07:01:13.678Z,100351.98
2023-11-15T07:03:48.249Z,100346.64
2023-11-15T07:06:19.994Z,100356.53
2023-11-15T07:08:48.080Z,100357.41
2023-11-15T07:11:16.611Z,100365.77
2023-11-15T07:13:47.119Z,100362.38
2023-11-15T07:16:14.878Z,100354.73
2023-11-15T07:18:43.248Z,100347.77
2023-11-15T07:21:11.001Z,100344.15
2023-11-15T07:23:41.758Z,100347.13
2023-11-15T07:26:12.442Z,100337.38
2023-11-15T07:28:43.632Z,100344.84
2023-11-15T07:31:20.263Z,100351.25
2023-11-15T07:33:48.266Z,100344.37
2023-11-15T07:36:18.872Z,100341.64
2023-11-15T07:38:49.850Z,100341.50
2023-11-15T07:41:20.727Z,100350.33
2023-11-15T07:43:49.356Z,100353.30
2023-11-15T07:46:17.192Z,100357.46
2023-11-15T07:48:44.982Z,100365.42
2023-11-15T07:51:12.910Z,100374.83
2023-11-15T07:53:40.581Z,100376.70
2023-11-15T07:56:10.042Z,100372.39
2023-11-15T07:58:38.361Z,100378.95
2023-11-15T08:01:11.488Z,100376.99
2023-11-15T08:03:40.965Z,100374.80
2023-11-15T08:06:14.453Z,100376.28
2023-11-15T08:08:45.177Z,100373.23
2023-11-15T08:11:12.976Z,100359.27
2023-11-15T08:13:40.737Z,100355.20
2023-11-15T08:16:14.638Z,100350.53
2023-11-15T08:18:46.481Z,100334.20
2023-11-15T08:21:14.520Z,100312.62
2023-11-15T08:23:43.649Z,100303.91
2023-11-15T08:26:13.539Z,100305.18
2023-11-15T08:28:45.436Z,100315.71
2023-11-15T08:31:15.629Z,100331.54
2023-11-15T08:33:46.247Z,100326.67
2023-11-15T08:36:14.408Z,100336.93
2023-11-15T08:38:42.156Z,100339.30
2023-11-15T08:41:10.884Z,100332.15
2023-11-15T08:43:39.222Z,100336.31
2023-11-15T08:46:07.308Z,100347.00
2023-11-15T08:48:38.553Z,100347.65
2023-11-15T08:51:06.759Z,100340.59
2023-11-15T08:53:34.523Z,100344.09
2023-11-15T08:56:04.389Z,100341.13
2023-11-15T08:58:32.922Z,100335.58
2023-11-15T09:01:03.993Z,100334.48
2023-11-15T09:03:32.081Z,100332.09
2023-11-15T09:06:03.602Z,100333.48
2023-11-15T09:08:33.733Z,100334.69
2023-11-15T09:11:01.447Z,100335.13
2023-11-15T09:13:30.605Z,100335.20
2023-11-15T09:16:00.627Z,100323.96
2023-11-15T09:18:32.202Z,100318.71
2023-11-15T09:21:07.623Z,100314.52
2023-11-15T09:23:37.952Z,100309.92
2023-11-15T09:26:07.220Z,100303.06
2023-11-15T09:28:35.752Z,100291.79
2023-11-15T09:31:09.468Z,100282.69
2023-11-15T09:33:37.607Z,100272.42
2023-11-15T09:36:08.940Z,100263.79
2023-11-15T09:38:36.784Z,100240.53
2023-11-15T09:41:07.685Z,100224.92
2023-11-15T09:43:36.294Z,100232.56
2023-11-15T09:46:10.223Z,100245.40
2023-11-15T09:48:40.162Z,100251.70
2023-11-15T09:51:11.207Z,100249.67
2023-11-15T09:53:40.065Z,100240.61
2023-11-15T09:56:08.578Z,100240.57
2023-11-15T09:58:36.553Z,100234.98
2023-11-15T10:01:04.734Z,100240.27
2023-11-15T10:03:32.579Z,100234.98
2023-11-15T10:06:05.277Z,100234.34
2023-11-15T10:08:33.329Z,100236.82
2023-11-15T10:11:06.470Z,100229.55
2023-11-15T10:13:39.558Z,100220.88
2023-11-15T10:16:32.075Z,100219.30
2023-11-15T10:19:03.610Z,100223.69
2023-11-15T10:21:35.180Z,100231.56
2023-11-15T10:24:14.317Z,100232.70
2023-11-15T10:26:42.442Z,100234.54
2023-11-15T10:29:14.259Z,100235.48
2023-11-15T10:31:52.976Z,100234.24
2023-11-15T10:34:34.160Z,100225.98
2023-11-15T10:37:08.851Z,100230.16
2023-11-15T10:39:45.912Z,100237.93
2023-11-15T10:42:14.358Z,100243.45
2023-11-15T10:44:43.459Z,100241.26
2023-11-15T10:47:13.978Z,100234.95
2023-11-15T10:49:44.929Z,100233.80
2023-11-15T10:52:12.702Z,100234.20
2023-11-15T10:54:40.279Z,100234.61
2023-11-15T10:57:08.687Z,100231.19
2023-11-15T10:59:38.384Z,100219.44
2023-11-15T11:02:11.176Z,100200.23
2023-11-15T11:04:40.486Z,100199.46
2023-11-15T11:07:17.347Z,100201.45
2023-11-15T11:10:01.239Z,100201.72
2023-11-15T11:12:32.328Z,100205.33
2023-11-15T11:15:25.146Z,100205.11
2023-11-15T11:18:05.404Z,100203.41
2023-11-15T11:20:38.961Z,100201.09
2023-11-15T11:23:18.594Z,100195.27
2023-11-15T11:25:49.762Z,100193.91
2023-11-15T11:28:18.178Z,100187.45
2023-11-15T11:30:46.175Z,100181.40
2023-11-15T11:33:20.381Z,100170.09
2023-11-15T11:35:49.627Z,100166.24
2023-11-15T11:38:39.977Z,100164.96
2023-11-15T11:41:10.220Z,100163.35
2023-11-15T11:43:43.447Z,100172.90
2023-11-15T11:46:15.750Z,100169.10
2023-11-15T11:48:46.729Z,100169.18
2023-11-15T11:51:15.914Z,100168.03
2023-11-15T11:53:45.978Z,100169.95
2023-11-15T11:56:15.370Z,100165.42
2023-11-15T11:58:43.331Z,100157.39
2023-11-15T12:01:14.883Z,100157.05
2023-11-15T12:03:47.866Z,100158.14
2023-11-15T12:06:16.467Z,100158.29
2023-11-15T12:08:55.091Z,100158.92
2023-11-15T12:11:24.461Z,100157.91
2023-11-15T12:13:52.947Z,100157.05
2023-11-15T12:16:27.075Z,100144.17
2023-11-15T12:19:00.164Z,100142.31
2023-11-15T12:21:44.142Z,100151.15
2023-11-15T12:24:12.533Z,100152.39
2023-11-15T12:26:50.099Z,100154.75
2023-11-15T12:29:25.863Z,100158.91
2023-11-15T12:31:56.633Z,100160.08
2023-11-15T12:34:25.807Z,100168.27
2023-11-15T12:36:53.575Z,100174.93
2023-11-15T12:39:23.554Z,100180.77
2023-11-15T12:41:53.855Z,100179.52
2023-11-15T12:44:22.935Z,100176.75
2023-11-15T12:46:58.732Z,100176.39
2023-11-15T12:49:27.927Z,100190.29
2023-11-15T12:51:56.242Z,100190.34
2023-11-15T12:54:27.529Z,100196.60
2023-11-15T12:57:15.422Z,100205.14
2023-11-15T12:59:45.970Z,100217.06
2023-11-15T13:02:19.820Z,100225.04
2023-11-15T13:04:49.030Z,100234.17
2023-11-15T13:07:19.674Z,100237.77
2023-11-15T13:09:48.100Z,100239.88
2023-11-15T13:12:45.345Z,100238.72
2023-11-15T13:15:21.312Z,100235.52
2023-11-15T13:17:50.316Z,100232.20
2023-11-15T13:20:20.338Z,100230.52
2023-11-15T13:22:55.059Z,100237.52
2023-11-15T13:25:23.229Z,100243.29
2023-11-15T13:27:51.516Z,100236.98
2023-11-15T13:30:22.291Z,100238.47
2023-11-15T13:32:50.371Z,100232.79
2023-11-15T13:35:18.627Z,100237.74
2023-11-15T13:37:52.611Z,100237.44
2023-11-15T13:40:21.013Z,100241.65
2023-11-15T13:42:50.559Z,100242.48
2023-11-15T13:45:23.714Z,100245.44
2023-11-15T13:47:52.085Z,100250.38
2023-11-15T13:50:22.245Z,100246.33
2023-11-15T13:52:51.606Z,100238.66
2023-11-15T13:55:20.860Z,100238.21
2023-11-15T13:57:52.315Z,100240.72
2023-11-15T14:00:25.302Z,100240.52
2023-11-15T14:02:53.264Z,100245.08
2023-11-15T14:05:22.375Z,100245.15
2023-11-15T14:07:50.661Z,100243.35
2023-11-15T14:10:20.756Z,100249.39
2023-11-15T14:12:48.594Z,100247.08
2023-11-15T14:15:28.661Z,100241.75
2023-11-15T14:17:56.464Z,100236.70
2023-11-15T14:20:25.978Z,100243.10
2023-11-15T14:22:57.041Z,100241.80
2023-11-15T14:25:24.926Z,100241.58
2023-11-15T14:27:56.387Z,100246.36
2023-11-15T14:30:26.272Z,100246.93
2023-11-15T14:32:55.536Z,100248.67
2023-11-15T14:35:24.859Z,100246.66
2023-11-15T14:37:56.543Z,100253.91
2023-11-15T14:40:32.104Z,100262.46
2023-11-15T14:43:00.256Z,100265.56
2023-11-15T14:45:29.155Z,100264.08
2023-11-15T14:48:02.456Z,100260.65
2023-11-15T14:50:30.980Z,100257.46
2023-11-15T14:53:28.287Z,100254.52
2023-11-15T14:55:56.232Z,100250.48
2023-11-15T14:58:27.441Z,100245.66
2023-11-15T15:00:55.857Z,100243.86
2023-11-15T15:03:29.848Z,100237.48
2023-11-15T15:05:57.685Z,100238.58
2023-11-15T15:08:25.848Z,100240.58
2023-11-15T15:10:57.432Z,100246.92
2023-11-15T15:13:25.995Z,100252.73
2023-11-15T15:15:55.980Z,100257.73
2023-11-15T15:18:32.352Z,100262.05
2023-11-15T15:21:03.082Z,100266.50
2023-11-15T15:23:33.960Z,100274.77
2023-11-15T15:26:04.248Z,100281.31
2023-11-15T15:28:55.285Z,100286.22
2023-11-15T15:31:26.233Z,100291.52
2023-11-15T15:33:54.482Z,100296.76
2023-11-15T15:36:23.016Z,100302.20
2023-11-15T15:39:04.817Z,100302.71
2023-11-15T15:41:36.545Z,100306.23
2023-11-15T15:44:05.061Z,100313.73
2023-11-15T15:46:39.433Z,100313.71
2023-11-15T15:49:10.831Z,100313.27
2023-11-15T15:51:42.551Z,100306.16
2023-11-15T15:54:18.338Z,100300.23
2023-11-15T15:56:46.831Z,100288.58
2023-11-15T15:59:14.931Z,100292.06
2023-11-15T16:01:47.111Z,100301.92
2023-11-15T16:04:17.218Z,100309.59
2023-11-15T16:06:45.059Z,100313.79
2023-11-15T16:09:13.031Z,100321.70
2023-11-15T16:11:40.948Z,100318.17
2023-11-15T16:14:09.064Z,100318.14
2023-11-15T16:16:36.609Z,100317.16
2023-11-15T16:19:04.519Z,100318.71
2023-11-15T16:21:32.192Z,100322.59
2023-11-15T16:24:01.279Z,100324.83
2023-11-15T16:26:29.060Z,100319.83
2023-11-15T16:28:56.990Z,100319.51
2023-11-15T16:31:24.850Z,100310.30
2023-11-15T16:33:52.716Z,100318.33
2023-11-15T16:36:20.472Z,100322.90
2023-11-15T16:38:48.278Z,100310.70
2023-11-15T16:41:18.546Z,100319.67
2023-11-15T16:43:46.384Z,100329.13
2023-11-15T16:46:14.171Z,100333.46
2023-11-15T16:48:44.249Z,100332.94
2023-11-15T16:51:12.651Z,100333.60
2023-11-15T16:53:40.343Z,100347.91
2023-11-15T16:56:08.486Z,100355.85
2023-11-15T16:58:36.196Z,100359.16
2023-11-15T17:01:07.578Z,100359.65
2023-11-15T17:03:35.721Z,100355.67
2023-11-15T17:06:03.748Z,100353.55
2023-11-15T17:08:33.404Z,100359.52
2023-11-15T17:11:01.248Z,100359.88
2023-11-15T17:13:29.338Z,100364.89
2023-11-15T17:15:57.170Z,100372.26
2023-11-15T17:18:25.467Z,100371.70
2023-11-15T17:20:53.679Z,100367.29
2023-11-15T17:23:21.363Z,100378.32
2023-11-15T17:25:53.095Z,100376.42
2023-11-15T17:28:20.901Z,100373.52
2023-11-15T17:30:48.953Z,100377.73
2023-11-15T17:33:17.718Z,100375.02
2023-11-15T17:35:45.649Z,100372.20
2023-11-15T17:38:13.428Z,100373.39
2023-11-15T17:40:41.222Z,100374.09
2023-11-15T17:43:08.824Z,100366.44
2023-11-15T17:45:36.574Z,100369.77
2023-11-15T17:48:04.465Z,100369.34
2023-11-15T17:50:32.321Z,100367.98
2023-11-15T17:53:00.093Z,100359.19
2023-11-15T17:55:27.928Z,100363.73
2023-11-15T17:57:55.730Z,100372.31
2023-11-15T18:00:24.686Z,100377.55
2023-11-15T18:02:52.547Z,100383.52
2023-11-15T18:05:20.651Z,100385.92
2023-11-15T18:07:48.300Z,100380.45
2023-11-15T18:10:15.979Z,100376.67
2023-11-15T18:12:44.318Z,100379.19
2023-11-15T18:15:15.764Z,100382.64
2023-11-15T18:17:43.458Z,100382.42
2023-11-15T18:20:14.671Z,100382.55
2023-11-15T18:22:42.927Z,100381.12
2023-11-15T18:25:11.864Z,100386.69
2023-11-15T18:27:40.978Z,100393.88
2023-11-15T18:30:13.664Z,100387.80
2023-11-15T18:32:45.444Z,100393.31
2023-11-15T18:35:13.348Z,100395.92
2023-11-15T18:37:41.556Z,100400.32
2023-11-15T18:40:18.450Z,100403.67
2023-11-15T18:42:46.476Z,100412.77
2023-11-15T18:45:14.283Z,100411.67
2023-11-15T18:47:42.458Z,100413.93
2023-11-15T18:50:12.311Z,100421.56
2023-11-15T18:52:42.980Z,100423.63
2023-11-15T18:55:13.738Z,100420.88
2023-11-15T18:57:42.921Z,100413.36
2023-11-15T19:00:14.052Z,100404.14
2023-11-15T19:02:45.034Z,100406.91
2023-11-15T19:05:14.078Z,100400.84
2023-11-15T19:07:41.932Z,100394.77
2023-11-15T19:10:10.728Z,100388.89
2023-11-15T19:12:38.701Z,100392.45
2023-11-15T19:15:12.331Z,100393.02
2023-11-15T19:17:41.467Z,100397.50
2023-11-15T19:20:11.573Z,100401.33
2023-11-15T19:22:42.008Z,100396.27
2023-11-15T19:25:10.940Z,100401.33
2023-11-15T19:27:39.690Z,100406.20
2023-11-15T19:30:10.909Z,100409.23
2023-11-15T19:32:38.868Z,100412.44
2023-11-15T19:35:10.028Z,100414.98
2023-11-15T19:37:39.291Z,100415.91
2023-11-15T19:40:10.938Z,100413.60
2023-11-15T19:42:39.891Z,100415.86
2023-11-15T19:45:09.327Z,100423.34
2023-11-15T19:47:37.142Z,100425.06
2023-11-15T19:50:08.163Z,100418.71
2023-11-15T19:52:35.900Z,100422.23
2023-11-15T19:55:08.580Z,100417.14
2023-11-15T19:57:40.851Z,100413.29
2023-11-15T20:00:13.253Z,100415.87
2023-11-15T20:02:47.114Z,100411.77
2023-11-15T20:05:16.375Z,100412.94
2023-11-15T20:07:44.448Z,100416.61
2023-11-15T20:10:14.925Z,100418.77
2023-11-15T20:12:42.835Z,100422.34
2023-11-15T20:15:11.766Z,100423.20
2023-11-15T20:17:39.829Z,100422.34
2023-11-15T20:20:11.106Z,100426.27
2023-11-15T20:22:46.008Z,100423.38
2023-11-15T20:25:20.661Z,100418.37
2023-11-15T20:27:48.435Z,100418.38
2023-11-15T20:30:16.416Z,100417.00
2023-11-15T20:32:44.296Z,100413.09
2023-11-15T20:35:12.257Z,100411.87
2023-11-15T20:37:39.963Z,100409.83
2023-11-15T20:40:16.514Z,100406.58
2023-11-15T20:42:47.900Z,100404.28
2023-11-15T20:45:15.886Z,100406.03
2023-11-15T20:47:43.813Z,100413.54
2023-11-15T20:50:13.073Z,100417.63
2023-11-15T20:52:41.116Z,100416.30
2023-11-15T20:55:09.917Z,100413.55
2023-11-15T20:57:37.841Z,100417.25
2023-11-15T21:00:15.054Z,100421.59
2023-11-15T21:02:42.898Z,100421.39
2023-11-15T21:05:12.976Z,100419.33
2023-11-15T21:07:42.079Z,100420.20
2023-11-15T21:10:09.982Z,100417.54
2023-11-15T21:12:37.613Z,100424.92
2023-11-15T21:15:06.660Z,100429.62
2023-11-15T21:17:34.512Z,100427.08
2023-11-15T21:20:12.349Z,100424.46
2023-11-15T21:22:41.173Z,100420.42
2023-11-15T21:25:15.077Z,100417.83
2023-11-15T21:27:43.777Z,100418.79
2023-11-15T21:30:12.243Z,100418.29
2023-11-15T21:32:43.650Z,100421.70
2023-11-15T21:35:12.505Z,100427.56
2023-11-15T21:37:44.241Z,100433.04
2023-11-15T21:40:16.312Z,100436.11
2023-11-15T21:42:47.189Z,100438.33
2023-11-15T21:45:17.837Z,100441.48
2023-11-15T21:47:48.513Z,100441.27
2023-11-15T21:50:16.505Z,100437.86
2023-11-15T21:52:44.972Z,100438.86
2023-11-15T21:55:12.689Z,100440.34
2023-11-15T21:57:40.425Z,100444.02
2023-11-15T22:00:10.074Z,100444.75
2023-11-15T22:02:37.657Z,100442.98
2023-11-15T22:05:06.352Z,100449.17
2023-11-15T22:07:33.937Z,100449.23
2023-11-15T22:10:01.486Z,100448.38
2023-11-15T22:12:29.155Z,100449.19
2023-11-15T22:14:56.772Z,100452.42
2023-11-15T22:17:24.257Z,100449.91
2023-11-15T22:19:52.417Z,100449.07
2023-11-15T22:22:19.965Z,100450.48
2023-11-15T22:24:47.512Z,100451.17
2023-11-15T22:27:15.248Z,100450.22
2023-11-15T22:29:42.796Z,100449.33
2023-11-15T22:32:10.340Z,100451.42
2023-11-15T22:34:37.906Z,100452.38
2023-11-15T22:37:05.446Z,100450.48
2023-11-15T22:39:33.659Z,100446.56
2023-11-15T22:42:01.276Z,100450.08
2023-11-15T22:44:28.856Z,100446.58
2023-11-15T22:46:56.447Z,100450.71
2023-11-15T22:49:25.447Z,100453.05
2023-11-15T22:51:52.998Z,100450.08
2023-11-15T22:54:20.639Z,100455.38
2023-11-15T22:56:48.247Z,100459.41
2023-11-15T22:59:15.776Z,100454.69
2023-11-15T23:01:43.291Z,100458.44
2023-11-15T23:04:16.334Z,100458.94
2023-11-15T23:06:45.922Z,100460.46
2023-11-15T23:09:15.855Z,100457.75
2023-11-15T23:11:43.418Z,100457.47
2023-11-15T23:14:11.840Z,100458.89
2023-11-15T23:16:40.689Z,100463.67
2023-11-15T23:19:09.109Z,100464.55
2023-11-15T23:21:37.669Z,100468.98
2023-11-15T23:24:07.577Z,100469.85
2023-11-15T23:26:35.225Z,100471.38
2023-11-15T23:29:02.840Z,100471.31
2023-11-15T23:31:30.385Z,100474.29
2023-11-15T23:33:57.900Z,100473.39
2023-11-15T23:36:25.391Z,100473.73
2023-11-15T23:38:53.909Z,100471.20
2023-11-15T23:41:21.444Z,100475.80
2023-11-15T23:43:49.069Z,100476.01
2023-11-15T23:46:16.833Z,100476.39
2023-11-15T23:48:44.497Z,100482.98
2023-11-15T23:51:11.972Z,100477.10
2023-11-15T23:53:39.501Z,100472.86
2023-11-15T23:56:07.840Z,100468.95
2023-11-15T23:58:35.399Z,100476.91
